Time;durP1;ratioP1;P1;durP2;ratioP2;P2;SDS_P1;SDS_P2;PMS_P1;PMS_P2;Temp;Humidity;BMP_temperature;BMP_pressure;BME280_temperature;BME280_humidity;BME280_pressure;Samples;Min_cycle;Max_cycle;Signal;HPM_P1;HPM_P2
2022/06/25 00:01:17;;;;;;;;;;;;;;;;;;4974626;28;8567;-88
2022/06/25 00:03:43;;;;;;;;;;;;;;;;;;4975304;28;7266;-87
2022/06/25 00:06:09;;;;;;;;;;;;;;;;;;4974792;28;8409;-88
2022/06/25 00:08:36;;;;;;;;;;;;;;;;;;4974550;28;8312;-88
2022/06/25 00:11:02;;;;;;;;;;;;;;;;;;4975109;28;8419;-88
2022/06/25 00:13:28;;;;;;;;;;;;;;;;;;4974341;28;8398;-87
2022/06/25 00:15:53;;;;;;;;;;;;;;;;;;4990921;28;7162;-88
2022/06/25 00:18:19;;;;;;;;;;;;;;;;;;4974499;28;8370;-88
2022/06/25 00:20:45;;;;;;;;;;;;;;;;;;4974645;28;7028;-87
2022/06/25 00:23:11;;;;;;;;;;;;;;;;;;4974881;28;7219;-87
2022/06/25 00:25:37;;;;;;;;;;;;;;;;;;4978710;28;7210;-88
2022/06/25 00:28:02;;;;;;;;;;;;;;;;;;4978660;28;7230;-88
2022/06/25 00:30:28;;;;;;;;;;;;;;;;;;4978281;28;8452;-88
2022/06/25 00:32:53;;;;;;;;;;;;;;;;;;4978211;28;8705;-88
2022/06/25 00:35:19;;;;;;;;;;;;;;;;;;4978009;28;7395;-87
2022/06/25 00:37:45;;;;;;;;;;;;;;;;;;4978197;28;7074;-88
2022/06/25 00:40:11;;;;;;;;;;;;;;;;;;4978110;28;8496;-88
2022/06/25 00:42:37;;;;;;;;;;;;;;;;;;4977752;28;8605;-88
2022/06/25 00:45:03;;;;;;;;;;;;;;;;;;4977871;28;7224;-88
2022/06/25 00:47:28;;;;;;;;;;;;;;;;;;4978415;28;7023;-88
2022/06/25 00:49:54;;;;;;;;;;;;;;;;;;4978050;28;6993;-87
2022/06/25 00:52:21;;;;;;;;;;;;;;;;;;4978123;28;7038;-88
2022/06/25 00:54:54;;;;;;;;;;;;;;;;;;4978035;28;7113;-88
2022/06/25 00:57:24;;;;;;;;;;;;;;;;;;4977978;28;6852;-88
2022/06/25 00:59:51;;;;;;;;;;;;;;;;;;4977522;28;7034;-88
2022/06/25 01:02:20;;;;;;;;;;;;;;;;;;4977580;28;8578;-88
2022/06/25 01:04:46;;;;;;;;;;;;;;;;;;4977612;28;8896;-88
2022/06/25 01:07:12;;;;;;;;;;;;;;;;;;4977385;28;7172;-88
2022/06/25 01:09:39;;;;;;;;;;;;;;;;;;4977409;28;8689;-88
2022/06/25 01:12:05;;;;;;;;;;;;;;;;;;4977661;28;8420;-88
2022/06/25 01:14:30;;;;;;;;;;;;;;;;;;4977173;28;7053;-88
2022/06/25 01:16:56;;;;;;;;;;;;;;;;;;4977477;28;6847;-88
2022/06/25 01:19:21;;;;;;;;;;;;;;;;;;4978311;28;7047;-88
2022/06/25 01:21:47;;;;;;;;;;;;;;;;;;4977400;28;8425;-88
2022/06/25 01:24:13;;;;;;;;;;;;;;;;;;4977416;28;6980;-88
2022/06/25 01:26:40;;;;;;;;;;;;;;;;;;4977639;28;7158;-88
2022/06/25 01:29:07;;;;;;;;;;;;;;;;;;4977240;28;6904;-88
2022/06/25 01:31:32;;;;;;;;;;;;;;;;;;4977383;28;8318;-88
2022/06/25 01:33:59;;;;;;;;;;;;;;;;;;4977193;28;8606;-88
2022/06/25 01:36:25;;;;;;;;;;;;;;;;;;4977089;28;8739;-87
2022/06/25 01:38:51;;;;;;;;;;;;;;;;;;4976750;28;8709;-88
2022/06/25 01:41:16;;;;;;;;;;;;;;;;;;4976704;28;7489;-88
2022/06/25 01:43:42;;;;;;;;;;;;;;;;;;4976920;28;8445;-88
2022/06/25 01:46:11;;;;;;;;;;;;;;;;;;4977265;28;8633;-88
2022/06/25 01:48:37;;;;;;;;;;;;;;;;;;4976614;28;7266;-88
2022/06/25 01:51:04;;;;;;;;;;;;;;;;;;4976941;28;8303;-88
2022/06/25 01:53:29;;;;;;;;;;;;;;;;;;4976525;28;8341;-88
2022/06/25 01:55:55;;;;;;;;;;;;;;;;;;4977165;28;8300;-88
2022/06/25 01:58:21;;;;;;;;;;;;;;;;;;4976727;28;8384;-88
2022/06/25 02:00:47;;;;;;;;;;;;;;;;;;4977285;28;7130;-88
2022/06/25 02:03:14;;;;;;;;;;;;;;;;;;4976356;28;8199;-87
2022/06/25 02:05:59;;;;;;;;;;;;;;;;;;4976256;28;8876;-88
2022/06/25 02:08:33;;;;;;;;;;;;;;;;;;4976058;28;7189;-87
2022/06/25 02:11:00;;;;;;;;;;;;;;;;;;4976357;28;8424;-88
2022/06/25 02:13:26;;;;;;;;;;;;;;;;;;4976596;28;8750;-87
2022/06/25 02:15:52;;;;;;;;;;;;;;;;;;4975950;28;7243;-87
2022/06/25 02:18:18;;;;;;;;;;;;;;;;;;4976480;28;7153;-87
2022/06/25 02:20:44;;;;;;;;;;;;;;;;;;4976431;28;7146;-88
2022/06/25 02:23:10;;;;;;;;;;;;;;;;;;4976481;28;7254;-88
2022/06/25 02:25:36;;;;;;;;;;;;;;;;;;4976288;28;8362;-88
2022/06/25 02:28:03;;;;;;;;;;;;;;;;;;4975863;28;7162;-88
2022/06/25 02:30:28;;;;;;;;;;;;;;;;;;4975933;28;7187;-87
2022/06/25 02:32:54;;;;;;;;;;;;;;;;;;4976094;28;7183;-88
2022/06/25 02:35:19;;;;;;;;;;;;;;;;;;4975672;28;7372;-88
2022/06/25 02:37:45;;;;;;;;;;;;;;;;;;4975722;28;7211;-88
2022/06/25 02:40:11;;;;;;;;;;;;;;;;;;4976252;28;8322;-88
2022/06/25 02:42:37;;;;;;;;;;;;;;;;;;4976219;28;9285;-88
2022/06/25 02:45:04;;;;;;;;;;;;;;;;;;4975657;28;7178;-88
2022/06/25 02:47:30;;;;;;;;;;;;;;;;;;4974755;28;7194;-88
2022/06/25 02:49:56;;;;;;;;;;;;;;;;;;4975331;28;7177;-88
2022/06/25 02:52:22;;;;;;;;;;;;;;;;;;4975762;28;7580;-88
2022/06/25 02:54:47;;;;;;;;;;;;;;;;;;4975398;28;8840;-88
2022/06/25 02:59:59;;;;;;;;;;;;;;;;;;4956248;28;6982;-88
2022/06/25 03:02:24;;;;;;;;;;;;;;;;;;4975882;28;7267;-88
2022/06/25 03:04:50;;;;;;;;;;;;;;;;;;4975464;28;7235;-88
2022/06/25 03:07:15;;;;;;;;;;;;;;;;;;4975501;28;8336;-88
2022/06/25 03:09:41;;;;;;;;;;;;;;;;;;4975634;28;7035;-88
2022/06/25 03:12:07;;;;;;;;;;;;;;;;;;4975213;28;7049;-88
2022/06/25 03:14:33;;;;;;;;;;;;;;;;;;4975589;28;7086;-88
2022/06/25 03:16:58;;;;;;;;;;;;;;;;;;4976030;28;7185;-88
2022/06/25 03:19:24;;;;;;;;;;;;;;;;;;4975607;28;7235;-88
2022/06/25 03:21:49;;;;;;;;;;;;;;;;;;4975374;28;7022;-88
2022/06/25 03:24:15;;;;;;;;;;;;;;;;;;4974763;28;7062;-88
2022/06/25 03:26:41;;;;;;;;;;;;;;;;;;4974750;28;8450;-88
2022/06/25 03:29:07;;;;;;;;;;;;;;;;;;4975383;28;8682;-87
2022/06/25 03:31:32;;;;;;;;;;;;;;;;;;4975198;28;7031;-88
2022/06/25 03:33:57;;;;;;;;;;;;;;;;;;4975134;28;8323;-88
2022/06/25 03:36:23;;;;;;;;;;;;;;;;;;4975036;28;8325;-88
2022/06/25 03:38:49;;;;;;;;;;;;;;;;;;4975165;28;8411;-87
2022/06/25 03:41:32;;;;;;;;;;;;;;;;;;4974876;28;7249;-88
2022/06/25 03:44:05;;;;;;;;;;;;;;;;;;4975140;28;7167;-87
2022/06/25 03:46:33;;;;;;;;;;;;;;;;;;4975236;28;7167;-87
2022/06/25 03:48:59;;;;;;;;;;;;;;;;;;4974953;28;7038;-88
2022/06/25 03:51:25;;;;;;;;;;;;;;;;;;4974863;28;7056;-87
2022/06/25 03:53:52;;;;;;;;;;;;;;;;;;4974933;28;8675;-87
2022/06/25 03:56:18;;;;;;;;;;;;;;;;;;4975297;28;8343;-88
2022/06/25 03:58:43;;;;;;;;;;;;;;;;;;4976383;28;7514;-88
2022/06/25 04:01:09;;;;;;;;;;;;;;;;;;4978495;28;7403;-87
2022/06/25 04:03:35;;;;;;;;;;;;;;;;;;4979008;28;6829;-87
2022/06/25 04:06:00;;;;;;;;;;;;;;;;;;4978531;28;8383;-88
2022/06/25 04:08:26;;;;;;;;;;;;;;;;;;4978331;28;7047;-87
2022/06/25 04:10:54;;;;;;;;;;;;;;;;;;4978916;28;8405;-88
2022/06/25 04:13:20;;;;;;;;;;;;;;;;;;4978320;28;8414;-88
2022/06/25 04:15:46;;;;;;;;;;;;;;;;;;4978595;28;7164;-88
2022/06/25 04:18:12;;;;;;;;;;;;;;;;;;4978966;28;7155;-88
2022/06/25 04:20:37;;;;;;;;;;;;;;;;;;4978239;28;8506;-88
2022/06/25 04:23:02;;;;;;;;;;;;;;;;;;4978416;28;7159;-88
2022/06/25 04:25:28;;;;;;;;;;;;;;;;;;4978269;28;7136;-88
2022/06/25 04:30:38;;;;;;;;;;;;;;;;;;4979305;28;6816;-88
2022/06/25 04:33:03;;;;;;;;;;;;;;;;;;4978300;28;8418;-88
2022/06/25 04:35:29;;;;;;;;;;;;;;;;;;4977924;28;8316;-88
2022/06/25 04:37:54;;;;;;;;;;;;;;;;;;4978121;28;8689;-88
2022/06/25 04:40:20;;;;;;;;;;;;;;;;;;4994002;28;9340;-88
2022/06/25 04:42:46;;;;;;;;;;;;;;;;;;4978484;28;8382;-89
2022/06/25 04:45:12;;;;;;;;;;;;;;;;;;4993828;28;8568;-88
2022/06/25 04:47:38;;;;;;;;;;;;;;;;;;4977891;28;7207;-88
2022/06/25 04:50:05;;;;;;;;;;;;;;;;;;4977706;28;8341;-88
2022/06/25 04:52:31;;;;;;;;;;;;;;;;;;4977815;28;8398;-88
2022/06/25 04:54:57;;;;;;;;;;;;;;;;;;4977724;28;8498;-88
2022/06/25 04:57:22;;;;;;;;;;;;;;;;;;4977940;28;8420;-88
2022/06/25 04:59:48;;;;;;;;;;;;;;;;;;4977377;28;7062;-88
2022/06/25 05:02:14;;;;;;;;;;;;;;;;;;4977585;28;8597;-88
2022/06/25 05:04:39;;;;;;;;;;;;;;;;;;4977494;28;8529;-88
2022/06/25 05:07:05;;;;;;;;;;;;;;;;;;4977400;28;8306;-88
2022/06/25 05:09:31;;;;;;;;;;;;;;;;;;4976514;28;7092;-88
2022/06/25 05:11:57;;;;;;;;;;;;;;;;;;4977258;28;8344;-88
2022/06/25 05:14:23;;;;;;;;;;;;;;;;;;4977135;28;8740;-88
2022/06/25 05:16:48;;;;;;;;;;;;;;;;;;4973849;28;7399;-87
2022/06/25 05:19:14;;;;;;;;;;;;;;;;;;4972633;28;7382;-88
2022/06/25 05:21:39;;;;;;;;;;;;;;;;;;4975248;28;7494;-84
2022/06/25 05:24:06;;;;;;;;;;;;;;;;;;4956773;28;8362;-88
2022/06/25 05:26:31;;;;;;;;;;;;;;;;;;4956416;28;7248;-88
2022/06/25 05:28:57;;;;;;;;;;;;;;;;;;4956449;28;8313;-87
2022/06/25 05:31:22;;;;;;;;;;;;;;;;;;4957117;28;8341;-87
2022/06/25 05:33:49;;;;;;;;;;;;;;;;;;4966268;28;8707;-87
2022/06/25 05:36:15;;;;;;;;;;;;;;;;;;4975429;28;7068;-88
2022/06/25 05:38:40;;;;;;;;;;;;;;;;;;4976035;28;8307;-88
2022/06/25 05:41:08;;;;;;;;;;;;;;;;;;4975808;28;8771;-89
2022/06/25 05:43:34;;;;;;;;;;;;;;;;;;4975560;28;7050;-88
2022/06/25 05:45:59;;;;;;;;;;;;;;;;;;4975145;28;8718;-88
2022/06/25 05:48:25;;;;;;;;;;;;;;;;;;4974706;28;8277;-86
2022/06/25 05:50:50;;;;;;;;;;;;;;;;;;4976453;28;8356;-83
2022/06/25 05:53:16;;;;;;;;;;;;;;;;;;4976011;28;8434;-84
2022/06/25 05:55:41;;;;;;;;;;;;;;;;;;4974815;28;8431;-83
2022/06/25 05:58:07;;;;;;;;;;;;;;;;;;4975318;28;8366;-86
2022/06/25 06:00:32;;;;;;;;;;;;;;;;;;4976405;28;8391;-87
2022/06/25 06:02:58;;;;;;;;;;;;;;;;;;4976520;28;7256;-88
2022/06/25 06:05:23;;;;;;;;;;;;;;;;;;4977129;28;8481;-88
2022/06/25 06:07:49;;;;;;;;;;;;;;;;;;4976415;28;7060;-88
2022/06/25 06:10:15;;;;;;;;;;;;;;;;;;4977010;28;7338;-88
2022/06/25 06:12:40;;;;;;;;;;;;;;;;;;4977498;28;7233;-88
2022/06/25 06:15:06;;;;;;;;;;;;;;;;;;4976757;28;7239;-88
2022/06/25 06:17:32;;;;;;;;;;;;;;;;;;4977432;28;7029;-83
2022/06/25 06:19:57;;;;;;;;;;;;;;;;;;4976919;28;8422;-89
2022/06/25 06:22:23;;;;;;;;;;;;;;;;;;4975461;28;7040;-87
2022/06/25 06:24:48;;;;;;;;;;;;;;;;;;4976046;28;7047;-88
2022/06/25 06:27:14;;;;;;;;;;;;;;;;;;4975959;28;8415;-88
2022/06/25 06:29:39;;;;;;;;;;;;;;;;;;4976252;28;7033;-89
2022/06/25 06:32:06;;;;;;;;;;;;;;;;;;4992539;28;7029;-88
2022/06/25 06:34:32;;;;;;;;;;;;;;;;;;4975954;28;7021;-89
2022/06/25 06:36:57;;;;;;;;;;;;;;;;;;4976174;28;8326;-88
2022/06/25 06:39:23;;;;;;;;;;;;;;;;;;4975856;28;8327;-88
2022/06/25 06:41:49;;;;;;;;;;;;;;;;;;4976055;28;8436;-87
2022/06/25 06:44:14;;;;;;;;;;;;;;;;;;4975932;28;8584;-87
2022/06/25 06:46:40;;;;;;;;;;;;;;;;;;4975574;28;8466;-88
2022/06/25 06:49:06;;;;;;;;;;;;;;;;;;4975480;28;8353;-88
2022/06/25 06:51:32;;;;;;;;;;;;;;;;;;4975391;28;7120;-87
2022/06/25 06:53:57;;;;;;;;;;;;;;;;;;4975609;28;7256;-87
2022/06/25 06:56:23;;;;;;;;;;;;;;;;;;4975476;28;8474;-88
2022/06/25 06:58:49;;;;;;;;;;;;;;;;;;4991504;28;8330;-87
2022/06/25 07:01:15;;;;;;;;;;;;;;;;;;4975120;28;6866;-87
2022/06/25 07:03:40;;;;;;;;;;;;;;;;;;4975147;28;8468;-88
2022/06/25 07:06:06;;;;;;;;;;;;;;;;;;4950849;28;8710;-87
2022/06/25 07:08:31;;;;;;;;;;;;;;;;;;4952942;28;8564;-87
2022/06/25 07:10:56;;;;;;;;;;;;;;;;;;4955974;28;8516;-87
2022/06/25 07:13:22;;;;;;;;;;;;;;;;;;4972419;28;7085;-87
2022/06/25 07:15:47;;;;;;;;;;;;;;;;;;4972393;28;8712;-88
2022/06/25 07:18:13;;;;;;;;;;;;;;;;;;4972594;28;8631;-88
2022/06/25 07:20:38;;;;;;;;;;;;;;;;;;4972102;28;8350;-85
2022/06/25 07:23:04;;;;;;;;;;;;;;;;;;4972575;28;7073;-87
2022/06/25 07:25:29;;;;;;;;;;;;;;;;;;4972384;28;8413;-86
2022/06/25 07:27:55;;;;;;;;;;;;;;;;;;4972329;28;8539;-89
2022/06/25 07:30:20;;;;;;;;;;;;;;;;;;4972552;28;7203;-89
2022/06/25 07:32:46;;;;;;;;;;;;;;;;;;4972442;28;7192;-88
2022/06/25 07:35:11;;;;;;;;;;;;;;;;;;4972075;28;7079;-89
2022/06/25 07:37:37;;;;;;;;;;;;;;;;;;4972600;28;8488;-89
2022/06/25 07:40:03;;;;;;;;;;;;;;;;;;4972366;28;8469;-88
2022/06/25 07:42:30;;;;;;;;;;;;;;;;;;4971506;28;8344;-87
2022/06/25 07:44:58;;;;;;;;;;;;;;;;;;4971736;28;8680;-88
2022/06/25 07:47:23;;;;;;;;;;;;;;;;;;4972310;28;7127;-86
2022/06/25 07:52:33;;;;;;;;;;;;;;;;;;4973660;28;6845;-89
2022/06/25 07:55:00;;;;;;;;;;;;;;;;;;4971675;28;7198;-88
2022/06/25 07:57:25;;;;;;;;;;;;;;;;;;4990783;28;8451;-88
2022/06/25 07:59:50;;;;;;;;;;;;;;;;;;4990943;28;7852;-87
2022/06/25 08:02:16;;;;;;;;;;;;;;;;;;4991070;28;7620;-87
2022/06/25 08:04:42;;;;;;;;;;;;;;;;;;4990658;28;8474;-87
2022/06/25 08:07:07;;;;;;;;;;;;;;;;;;4989974;28;8726;-89
2022/06/25 08:09:34;;;;;;;;;;;;;;;;;;4990820;28;8388;-91
2022/06/25 08:11:59;;;;;;;;;;;;;;;;;;4990895;28;7101;-90
2022/06/25 08:14:25;;;;;;;;;;;;;;;;;;4990898;28;7275;-90
2022/06/25 08:16:51;;;;;;;;;;;;;;;;;;4991092;28;8568;-89
2022/06/25 08:19:17;;;;;;;;;;;;;;;;;;4990711;28;7076;-89
2022/06/25 08:21:42;;;;;;;;;;;;;;;;;;4989269;28;7137;-89
2022/06/25 08:24:07;;;;;;;;;;;;;;;;;;4989084;28;9162;-90
2022/06/25 08:26:33;;;;;;;;;;;;;;;;;;4988794;28;8526;-88
2022/06/25 08:28:59;;;;;;;;;;;;;;;;;;4989003;28;8432;-90
2022/06/25 08:31:25;;;;;;;;;;;;;;;;;;4988952;28;6904;-89
2022/06/25 08:33:51;;;;;;;;;;;;;;;;;;4992121;28;8470;-89
2022/06/25 08:36:17;;;;;;;;;;;;;;;;;;4992889;28;8438;-90
2022/06/25 08:38:42;;;;;;;;;;;;;;;;;;4992406;28;8826;-90
2022/06/25 08:41:08;;;;;;;;;;;;;;;;;;4989724;28;8568;-88
2022/06/25 08:43:33;;;;;;;;;;;;;;;;;;4989227;28;7093;-89
2022/06/25 08:45:59;;;;;;;;;;;;;;;;;;4993228;28;7207;-90
2022/06/25 08:48:31;;;;;;;;;;;;;;;;;;4993371;28;7102;-90
2022/06/25 08:50:56;;;;;;;;;;;;;;;;;;4994819;28;8560;-92
2022/06/25 08:53:22;;;;;;;;;;;;;;;;;;4994342;28;8482;-91
2022/06/25 08:55:48;;;;;;;;;;;;;;;;;;4994668;28;9132;-90
2022/06/25 08:58:14;;;;;;;;;;;;;;;;;;4994141;28;8490;-89
2022/06/25 09:00:45;;;;;;;;;;;;;;;;;;4994502;28;8514;-86
2022/06/25 09:03:11;;;;;;;;;;;;;;;;;;4994766;28;8506;-89
2022/06/25 09:05:38;;;;;;;;;;;;;;;;;;4996138;28;8376;-90
2022/06/25 09:08:08;;;;;;;;;;;;;;;;;;4994230;28;8378;-89
2022/06/25 09:10:35;;;;;;;;;;;;;;;;;;4994501;28;8812;-88
2022/06/25 09:13:03;;;;;;;;;;;;;;;;;;4990046;28;7168;-88
2022/06/25 09:15:33;;;;;;;;;;;;;;;;;;4974694;28;8611;-87
2022/06/25 09:18:06;;;;;;;;;;;;;;;;;;4985128;28;7143;-80
2022/06/25 09:20:32;;;;;;;;;;;;;;;;;;4993589;28;7077;-90
2022/06/25 09:23:05;;;;;;;;;;;;;;;;;;4992870;28;8372;-90
2022/06/25 09:25:33;;;;;;;;;;;;;;;;;;4989818;28;8434;-89
2022/06/25 09:27:59;;;;;;;;;;;;;;;;;;4989682;28;7060;-89
2022/06/25 09:30:26;;;;;;;;;;;;;;;;;;4991150;28;8641;-89
2022/06/25 09:32:56;;;;;;;;;;;;;;;;;;4987611;28;8436;-89
2022/06/25 09:35:34;;;;;;;;;;;;;;;;;;4970872;28;8824;-87
2022/06/25 09:38:07;;;;;;;;;;;;;;;;;;4972010;28;7227;-89
2022/06/25 09:40:34;;;;;;;;;;;;;;;;;;4971423;28;8582;-84
2022/06/25 09:43:09;;;;;;;;;;;;;;;;;;4971444;28;8469;-89
2022/06/25 09:45:35;;;;;;;;;;;;;;;;;;4974427;28;8468;-88
2022/06/25 09:48:00;;;;;;;;;;;;;;;;;;4977469;28;8487;-88
2022/06/25 09:50:26;;;;;;;;;;;;;;;;;;4992158;28;8671;-89
2022/06/25 09:52:56;;;;;;;;;;;;;;;;;;4991773;28;8521;-84
2022/06/25 09:55:24;;;;;;;;;;;;;;;;;;4956513;28;7357;-86
2022/06/25 09:57:50;;;;;;;;;;;;;;;;;;4973311;28;8504;-88
2022/06/25 10:00:17;;;;;;;;;;;;;;;;;;4972237;28;7094;-85
2022/06/25 10:02:45;;;;;;;;;;;;;;;;;;4972851;28;7240;-82
2022/06/25 10:05:11;;;;;;;;;;;;;;;;;;4972659;28;7097;-84
2022/06/25 10:10:22;;;;;;;;;;;;;;;;;;4956977;28;6865;-85
2022/06/25 10:12:48;;;;;;;;;;;;;;;;;;4972280;28;8735;-89
2022/06/25 10:15:18;;;;;;;;;;;;;;;;;;4990565;28;7586;-88
2022/06/25 10:17:48;;;;;;;;;;;;;;;;;;4993281;28;8470;-88
2022/06/25 10:20:15;;;;;;;;;;;;;;;;;;4992135;28;7048;-87
2022/06/25 10:22:42;;;;;;;;;;;;;;;;;;4992295;28;8565;-89
2022/06/25 10:25:12;;;;;;;;;;;;;;;;;;4995100;28;8860;-88
2022/06/25 10:27:39;;;;;;;;;;;;;;;;;;4991609;28;7134;-89
2022/06/25 10:30:05;;;;;;;;;;;;;;;;;;4991712;28;8499;-89
2022/06/25 10:32:34;;;;;;;;;;;;;;;;;;4991492;28;8569;-88
2022/06/25 10:35:03;;;;;;;;;;;;;;;;;;4991285;28;8401;-89
2022/06/25 10:37:48;;;;;;;;;;;;;;;;;;4991796;28;7236;-86
2022/06/25 10:40:18;;;;;;;;;;;;;;;;;;4990938;28;7237;-89
2022/06/25 10:42:58;;;;;;;;;;;;;;;;;;4991131;28;9172;-89
2022/06/25 10:45:24;;;;;;;;;;;;;;;;;;4991198;28;7462;-88
2022/06/25 10:47:52;;;;;;;;;;;;;;;;;;4975289;28;8720;-89
2022/06/25 10:50:21;;;;;;;;;;;;;;;;;;4990610;28;7307;-89
2022/06/25 10:53:02;;;;;;;;;;;;;;;;;;4974962;28;7103;-89
2022/06/25 10:55:34;;;;;;;;;;;;;;;;;;4975161;28;6997;-89
2022/06/25 10:58:11;;;;;;;;;;;;;;;;;;4974460;28;8665;-90
2022/06/25 13:14:00;;;;;;;;;;;;;;;;;;5051600;28;6772;-63
2022/06/25 13:16:25;;;;;;;;;;;;;;;;;;5051339;28;7043;-64
2022/06/25 13:18:52;;;;;;;;;;;;;;;;;;5051185;28;7052;-64
2022/06/25 13:21:17;;;;;;;;;;;;;;;;;;5050261;28;8880;-62
2022/06/25 13:27:20;;;;;;;;;;;;;;;;;;5051447;28;7079;-64
2022/06/25 13:29:45;;;;;;;;;;;;;;;;;;5034841;28;8938;-64
2022/06/25 13:32:27;;;;;;;;;;;;;;;;;;5051167;28;7501;-63
2022/06/25 13:34:53;;;;;;;;;;;;;;;;;;5051281;28;7275;-63
2022/06/25 13:40:22;;;;;;;;;;;;;;;;;;5051039;28;7548;-63
2022/06/25 13:46:12;;;;;;;;;;;;;;;;;;5050976;28;7015;-63
2022/06/25 13:48:37;;;;;;;;;;;;;;;;;;5046720;28;7442;-63
2022/06/25 13:51:03;;;;;;;;;;;;;;;;;;5051692;28;7040;-63
2022/06/25 13:53:33;;;;;;;;;;;;;;;;;;5051091;28;7500;-63
2022/06/25 13:55:59;;;;;;;;;;;;;;;;;;5050969;28;7374;-62
2022/06/25 13:58:25;;;;;;;;;;;;;;;;;;5050946;28;7089;-63
2022/06/25 14:03:46;;;;;;;;;;;;;;;;;;5050700;28;6840;-63
2022/06/25 14:06:23;;;;;;;;;;;;;;;;;;5052481;28;7206;-62
2022/06/25 14:11:54;;;;;;;;;;;;;;;;;;5070806;28;7069;-62
2022/06/25 14:14:19;;;;;;;;;;;;;;;;;;5070990;28;7110;-64
2022/06/25 14:16:46;;;;;;;;;;;;;;;;;;5071185;28;7217;-64
2022/06/25 14:19:11;;;;;;;;;;;;;;;;;;5070437;28;7219;-66
2022/06/25 14:21:45;;;;;;;;;;;;;;;;;;5057116;28;6920;-60
2022/06/25 14:24:11;;;;;;;;;;;;;;;;;;5057614;28;7001;-60
2022/06/25 14:26:56;;;;;;;;;;;;;;;;;;5057760;28;7313;-60
2022/06/25 14:29:22;;;;;;;;;;;;;;;;;;5039681;28;7326;-61
2022/06/25 14:31:48;;;;;;;;;;;;;;;;;;4991998;28;12200;-61
2022/06/25 14:34:15;;;;;;;;;;;;;;;;;;4991396;28;7163;-58
2022/06/25 14:42:22;;;;;;;;;;;;;;;;;;5017553;28;7017;-58
2022/06/25 14:44:50;;;;;;;;;;;;;;;;;;5017344;28;6958;-59
2022/06/25 14:47:16;;;;;;;;;;;;;;;;;;5017300;28;7054;-59
2022/06/25 14:49:44;;;;;;;;;;;;;;;;;;5017004;28;7303;-58
2022/06/25 14:52:10;;;;;;;;;;;;;;;;;;5016427;28;7537;-58
2022/06/25 14:54:42;;;;;;;;;;;;;;;;;;5016800;28;7293;-60
2022/06/25 14:57:07;;;;;;;;;;;;;;;;;;5014700;28;7972;-58
2022/06/25 14:59:33;;;;;;;;;;;;;;;;;;5015270;28;7389;-58
2022/06/25 15:01:59;;;;;;;;;;;;;;;;;;5012028;28;7065;-60
2022/06/25 15:04:24;;;;;;;;;;;;;;;;;;5015654;28;7220;-58
2022/06/25 15:06:55;;;;;;;;;;;;;;;;;;5015581;28;8012;-58
2022/06/25 15:09:21;;;;;;;;;;;;;;;;;;5014810;28;7155;-58
2022/06/25 15:11:46;;;;;;;;;;;;;;;;;;5015301;28;7025;-58
2022/06/25 15:14:18;;;;;;;;;;;;;;;;;;5015582;28;7353;-58
2022/06/25 15:16:43;;;;;;;;;;;;;;;;;;4997804;28;8501;-59
2022/06/25 15:19:09;;;;;;;;;;;;;;;;;;5015603;28;7119;-57
2022/06/25 15:21:34;;;;;;;;;;;;;;;;;;5015984;28;7258;-58
2022/06/25 15:24:00;;;;;;;;;;;;;;;;;;5014282;28;6976;-58
2022/06/25 15:26:26;;;;;;;;;;;;;;;;;;5015414;28;7332;-58
2022/06/25 15:28:52;;;;;;;;;;;;;;;;;;5015427;28;7307;-58
2022/06/25 15:31:35;;;;;;;;;;;;;;;;;;5014754;28;7014;-58
2022/06/25 15:34:01;;;;;;;;;;;;;;;;;;5015619;28;7172;-58
2022/06/25 15:36:49;;;;;;;;;;;;;;;;;;5015409;28;7209;-57
2022/06/25 15:39:15;;;;;;;;;;;;;;;;;;5015140;28;7223;-62
2022/06/25 15:41:40;;;;;;;;;;;;;;;;;;5015439;28;7501;-62
2022/06/25 15:44:15;;;;;;;;;;;;;;;;;;5015495;28;7212;-62
2022/06/25 15:46:40;;;;;;;;;;;;;;;;;;5015185;28;7105;-62
2022/06/25 15:49:12;;;;;;;;;;;;;;;;;;5014046;28;7019;-61
2022/06/25 15:51:38;;;;;;;;;;;;;;;;;;5015484;28;7279;-59
2022/06/25 15:54:17;;;;;;;;;;;;;;;;;;5014822;28;7189;-59
2022/06/25 15:56:43;;;;;;;;;;;;;;;;;;5015375;28;7214;-60
2022/06/25 16:01:52;;;;;;;;;;;;;;;;;;5014620;28;7200;-58
2022/06/25 16:04:31;;;;;;;;;;;;;;;;;;5015064;28;7476;-58
2022/06/25 16:06:57;;;;;;;;;;;;;;;;;;4996191;28;7111;-58
2022/06/25 16:09:24;;;;;;;;;;;;;;;;;;4992388;28;7174;-58
2022/06/25 16:11:53;;;;;;;;;;;;;;;;;;4996812;28;7220;-58
2022/06/25 16:14:20;;;;;;;;;;;;;;;;;;4996054;28;7266;-57
2022/06/25 16:16:47;;;;;;;;;;;;;;;;;;4996505;28;7170;-57
2022/06/25 16:19:22;;;;;;;;;;;;;;;;;;4996299;28;7738;-56
2022/06/25 16:21:51;;;;;;;;;;;;;;;;;;4996145;28;7639;-57
2022/06/25 16:24:20;;;;;;;;;;;;;;;;;;4996112;28;7279;-57
2022/06/25 16:26:56;;;;;;;;;;;;;;;;;;4995825;28;7089;-58
2022/06/25 16:29:23;;;;;;;;;;;;;;;;;;4995740;28;7372;-58
2022/06/25 16:32:06;;;;;;;;;;;;;;;;;;4995751;28;9177;-58
2022/06/25 16:34:32;;;;;;;;;;;;;;;;;;5015767;28;7077;-60
2022/06/25 16:37:13;;;;;;;;;;;;;;;;;;5015230;28;7209;-58
2022/06/25 16:39:39;;;;;;;;;;;;;;;;;;5015749;28;7475;-58
2022/06/25 16:42:09;;;;;;;;;;;;;;;;;;5035110;28;7500;-59
2022/06/25 16:44:35;;;;;;;;;;;;;;;;;;5034278;28;7240;-58
2022/06/25 16:47:01;;;;;;;;;;;;;;;;;;5034896;28;7262;-58
2022/06/25 16:49:28;;;;;;;;;;;;;;;;;;5034931;28;7168;-58
2022/06/25 16:52:09;;;;;;;;;;;;;;;;;;5034743;28;8132;-59
2022/06/25 16:54:35;;;;;;;;;;;;;;;;;;5035128;28;7260;-59
2022/06/25 16:57:00;;;;;;;;;;;;;;;;;;5035466;28;7052;-59
2022/06/25 17:02:29;;;;;;;;;;;;;;;;;;5034652;28;6739;-59
2022/06/25 17:04:56;;;;;;;;;;;;;;;;;;5034816;28;7021;-59
2022/06/25 17:07:22;;;;;;;;;;;;;;;;;;5034801;28;7163;-58
2022/06/25 17:09:47;;;;;;;;;;;;;;;;;;5031882;28;7264;-59
2022/06/25 17:12:36;;;;;;;;;;;;;;;;;;5034493;28;7206;-58
2022/06/25 17:15:03;;;;;;;;;;;;;;;;;;5034301;28;7063;-58
2022/06/25 17:17:53;;;;;;;;;;;;;;;;;;5034537;28;7207;-59
2022/06/25 17:20:18;;;;;;;;;;;;;;;;;;5034548;28;7046;-59
2022/06/25 17:22:58;;;;;;;;;;;;;;;;;;5034741;28;7179;-59
2022/06/25 17:25:24;;;;;;;;;;;;;;;;;;5034574;28;7170;-58
2022/06/25 17:27:49;;;;;;;;;;;;;;;;;;5034558;28;7114;-59
2022/06/25 17:30:16;;;;;;;;;;;;;;;;;;5034544;28;7017;-58
2022/06/25 17:32:41;;;;;;;;;;;;;;;;;;5030438;28;7156;-58
2022/06/25 17:35:07;;;;;;;;;;;;;;;;;;5034439;28;7459;-58
2022/06/25 17:43:38;;;;;;;;;;;;;;;;;;5034652;28;6862;-59
2022/06/25 17:46:03;;;;;;;;;;;;;;;;;;5035028;28;7095;-58
2022/06/25 17:48:29;;;;;;;;;;;;;;;;;;5034286;28;7215;-59
2022/06/25 17:50:57;;;;;;;;;;;;;;;;;;5034239;28;7190;-58
2022/06/25 17:53:24;;;;;;;;;;;;;;;;;;5034188;28;7661;-58
2022/06/25 17:55:49;;;;;;;;;;;;;;;;;;5035785;28;7406;-58
2022/06/25 17:58:15;;;;;;;;;;;;;;;;;;5037826;28;7269;-58
2022/06/25 18:01:03;;;;;;;;;;;;;;;;;;5037970;28;7171;-58
2022/06/25 18:03:29;;;;;;;;;;;;;;;;;;5037463;28;7142;-58
2022/06/25 18:05:54;;;;;;;;;;;;;;;;;;5036670;28;7019;-58
2022/06/25 18:08:20;;;;;;;;;;;;;;;;;;5036183;28;7159;-58
2022/06/25 18:11:15;;;;;;;;;;;;;;;;;;5037530;28;7265;-58
2022/06/25 18:13:42;;;;;;;;;;;;;;;;;;5037468;28;7178;-58
2022/06/25 18:16:35;;;;;;;;;;;;;;;;;;5037240;28;7214;-58
2022/06/25 18:19:01;;;;;;;;;;;;;;;;;;5037527;28;7381;-58
2022/06/25 18:21:32;;;;;;;;;;;;;;;;;;5037594;28;7078;-58
2022/06/25 18:23:58;;;;;;;;;;;;;;;;;;5037127;28;7086;-58
2022/06/25 18:26:24;;;;;;;;;;;;;;;;;;5037358;28;7245;-58
2022/06/25 18:28:50;;;;;;;;;;;;;;;;;;5037238;28;6970;-58
2022/06/25 18:31:15;;;;;;;;;;;;;;;;;;5036570;28;7210;-68
2022/06/25 18:33:52;;;;;;;;;;;;;;;;;;5037410;28;6958;-67
2022/06/25 18:36:17;;;;;;;;;;;;;;;;;;5037412;28;7548;-62
2022/06/25 18:38:43;;;;;;;;;;;;;;;;;;5038656;28;7361;-63
2022/06/25 18:41:08;;;;;;;;;;;;;;;;;;5038181;28;7068;-56
2022/06/25 18:43:35;;;;;;;;;;;;;;;;;;5029967;28;7209;-55
2022/06/25 18:46:15;;;;;;;;;;;;;;;;;;5037257;28;7197;-56
2022/06/25 18:48:41;;;;;;;;;;;;;;;;;;5015512;28;8426;-55
2022/06/25 18:54:13;;;;;;;;;;;;;;;;;;5036792;28;7033;-54
2022/06/25 18:56:38;;;;;;;;;;;;;;;;;;5033482;28;7469;-56
2022/06/25 18:59:04;;;;;;;;;;;;;;;;;;5034201;28;7018;-53
2022/06/25 19:04:26;;;;;;;;;;;;;;;;;;5035388;28;6956;-56
2022/06/25 19:07:04;;;;;;;;;;;;;;;;;;5037142;28;7423;-56
2022/06/25 19:09:32;;;;;;;;;;;;;;;;;;5036949;28;7306;-55
2022/06/25 19:11:58;;;;;;;;;;;;;;;;;;5037713;28;7097;-53
2022/06/25 19:14:24;;;;;;;;;;;;;;;;;;5036677;28;7219;-56
2022/06/25 19:16:50;;;;;;;;;;;;;;;;;;5034919;28;7988;-55
2022/06/25 19:19:15;;;;;;;;;;;;;;;;;;5036281;28;7500;-55
2022/06/25 19:22:00;;;;;;;;;;;;;;;;;;5037129;28;7138;-53
2022/06/25 19:24:26;;;;;;;;;;;;;;;;;;5036043;28;8695;-56
2022/06/25 19:26:52;;;;;;;;;;;;;;;;;;5043403;23;7044;-86
2022/06/25 19:29:17;;;;;;;;;;;;;;;;;;5033893;28;7474;-87
2022/06/25 19:31:42;;;;;;;;;;;;;;;;;;5035773;28;8887;-87
2022/06/25 19:34:08;;;;;;;;;;;;;;;;;;5032576;28;8502;-86
2022/06/25 19:36:35;;;;;;;;;;;;;;;;;;5034278;28;7085;-86
2022/06/25 19:39:02;;;;;;;;;;;;;;;;;;5033173;28;7002;-87
2022/06/25 19:41:28;;;;;;;;;;;;;;;;;;5034495;28;7050;-86
2022/06/25 19:43:55;;;;;;;;;;;;;;;;;;5034856;28;8442;-88
2022/06/25 19:46:22;;;;;;;;;;;;;;;;;;5034776;28;8448;-86
2022/06/25 19:48:48;;;;;;;;;;;;;;;;;;5034299;28;8441;-86
2022/06/25 19:51:13;;;;;;;;;;;;;;;;;;5034642;28;6845;-87
2022/06/25 19:53:39;;;;;;;;;;;;;;;;;;5033275;28;8423;-86
2022/06/25 19:56:04;;;;;;;;;;;;;;;;;;5016801;28;7671;-87
2022/06/25 19:58:30;;;;;;;;;;;;;;;;;;5016447;28;8406;-86
2022/06/25 20:00:55;;;;;;;;;;;;;;;;;;5016349;28;8437;-85
2022/06/25 20:03:21;;;;;;;;;;;;;;;;;;5017662;28;8435;-86
2022/06/25 20:05:46;;;;;;;;;;;;;;;;;;5016666;28;8449;-86
2022/06/25 20:08:13;;;;;;;;;;;;;;;;;;5015766;28;8343;-85